Time;durP1;ratioP1;P1;durP2;ratioP2;P2;SDS_P1;SDS_P2;PMS_P1;PMS_P2;Temp;Humidity;BMP_temperature;BMP_pressure;BME280_temperature;BME280_humidity;BME280_pressure;Samples;Min_cycle;Max_cycle;Signal;HPM_P1;HPM_P2
2023/09/03 00:02:14;;;;;;;9.15;6.20;;;;;;;;;;5042408;28;20056;-77
2023/09/03 00:04:40;;;;;;;8.70;6.30;;;;;;;;;;5025423;28;20040;-77
2023/09/03 00:07:06;;;;;;;9.68;6.47;;;;;;;;;;5025552;28;20064;-77
2023/09/03 00:09:33;;;;;;;7.88;6.90;;;;;;;;;;5008361;28;20116;-78
2023/09/03 00:11:59;;;;;;;9.07;6.88;;;;;;;;;;5025808;28;20041;-77
2023/09/03 00:14:26;;;;;;;9.27;6.20;;;;;;;;;;5038024;28;20056;-77
2023/09/03 00:16:52;;;;;;;7.65;6.45;;;;;;;;;;5041116;28;20063;-77
2023/09/03 00:19:18;;;;;;;8.60;7.43;;;;;;;;;;5023855;28;20773;-77
2023/09/03 00:21:45;;;;;;;7.78;6.45;;;;;;;;;;5024395;28;20068;-78
2023/09/03 00:24:11;;;;;;;8.65;7.18;;;;;;;;;;5020387;28;20123;-78
2023/09/03 00:26:37;;;;;;;7.43;6.25;;;;;;;;;;5021458;28;20048;-77
2023/09/03 00:29:03;;;;;;;9.63;6.95;;;;;;;;;;5002426;28;20106;-78
2023/09/03 00:31:29;;;;;;;8.40;7.30;;;;;;;;;;5021822;28;20079;-77
2023/09/03 00:33:55;;;;;;;8.30;7.45;;;;;;;;;;5020542;28;20147;-77
2023/09/03 00:36:21;;;;;;;11.00;7.70;;;;;;;;;;5023648;28;20145;-77
2023/09/03 00:38:49;;;;;;;8.73;7.05;;;;;;;;;;5039496;28;20041;-77
2023/09/03 00:41:15;;;;;;;9.05;7.20;;;;;;;;;;5020610;28;20136;-77
2023/09/03 00:43:41;;;;;;;9.38;7.00;;;;;;;;;;5039194;28;20103;-77
2023/09/03 00:46:08;;;;;;;8.98;7.70;;;;;;;;;;5002715;28;20055;-77
2023/09/03 00:48:34;;;;;;;7.93;7.13;;;;;;;;;;5019208;28;20099;-77
2023/09/03 00:51:02;;;;;;;10.55;7.32;;;;;;;;;;5016741;28;21983;-77
2023/09/03 00:53:30;;;;;;;8.82;7.35;;;;;;;;;;5018752;28;20041;-78
2023/09/03 00:55:57;;;;;;;11.55;7.40;;;;;;;;;;5017830;28;20546;-77
2023/09/03 00:58:23;;;;;;;9.85;7.60;;;;;;;;;;5039251;28;20045;-77
2023/09/03 01:00:50;;;;;;;10.30;6.75;;;;;;;;;;5006117;28;20180;-77
2023/09/03 01:03:16;;;;;;;8.98;7.43;;;;;;;;;;5037142;28;20041;-78
2023/09/03 01:05:42;;;;;;;9.32;6.93;;;;;;;;;;5023164;28;20639;-78
2023/09/03 01:08:08;;;;;;;11.35;7.55;;;;;;;;;;5000052;28;20150;-78
2023/09/03 01:10:43;;;;;;;8.60;6.80;;;;;;;;;;5037903;28;20044;-78
2023/09/03 01:13:15;;;;;;;10.02;7.47;;;;;;;;;;5020178;28;20086;-77
2023/09/03 01:15:45;;;;;;;11.20;7.82;;;;;;;;;;5003799;28;20044;-78
2023/09/03 01:18:19;;;;;;;10.98;7.90;;;;;;;;;;5017127;28;22268;-77
2023/09/03 01:20:54;;;;;;;10.88;8.10;;;;;;;;;;5032924;28;20068;-77
2023/09/03 01:23:30;;;;;;;9.60;8.63;;;;;;;;;;5018059;28;20049;-77
2023/09/03 01:25:56;;;;;;;10.98;8.25;;;;;;;;;;5015749;28;20113;-77
2023/09/03 01:28:22;;;;;;;11.15;8.48;;;;;;;;;;4999615;28;20118;-77
2023/09/03 01:30:49;;;;;;;9.52;8.52;;;;;;;;;;5036935;28;20085;-77
2023/09/03 01:33:17;;;;;;;10.70;8.43;;;;;;;;;;5035381;28;20041;-77
2023/09/03 01:35:44;;;;;;;12.07;8.55;;;;;;;;;;5011470;28;20064;-77
2023/09/03 01:38:10;;;;;;;10.75;8.43;;;;;;;;;;4996706;28;20049;-77
2023/09/03 01:40:36;;;;;;;13.02;8.80;;;;;;;;;;4999796;28;20053;-78
2023/09/03 01:43:02;;;;;;;9.85;8.85;;;;;;;;;;5017238;28;20056;-77
2023/09/03 01:45:34;;;;;;;14.25;8.95;;;;;;;;;;5011889;28;20062;-78
2023/09/03 01:48:08;;;;;;;11.75;9.73;;;;;;;;;;5006270;28;20056;-78
2023/09/03 01:50:38;;;;;;;10.70;9.60;;;;;;;;;;5016048;28;20060;-77
2023/09/03 01:53:07;;;;;;;11.93;9.63;;;;;;;;;;5015553;28;20041;-77
2023/09/03 01:55:34;;;;;;;11.60;9.52;;;;;;;;;;5015044;28;20049;-78
2023/09/03 01:58:04;;;;;;;12.23;10.93;;;;;;;;;;5015081;28;20509;-77
2023/09/03 02:00:30;;;;;;;12.45;9.95;;;;;;;;;;5005737;28;20041;-77
2023/09/03 02:02:57;;;;;;;13.25;9.93;;;;;;;;;;5014830;28;20052;-77
2023/09/03 02:05:23;;;;;;;13.38;10.40;;;;;;;;;;5012495;28;20044;-77
2023/09/03 02:07:49;;;;;;;13.65;9.98;;;;;;;;;;5010851;28;20055;-77
2023/09/03 02:10:16;;;;;;;11.43;9.93;;;;;;;;;;5010545;28;20049;-77
2023/09/03 02:12:42;;;;;;;12.43;9.93;;;;;;;;;;5008889;28;20049;-77
2023/09/03 02:15:08;;;;;;;12.43;9.85;;;;;;;;;;5012716;28;20045;-77
2023/09/03 02:17:34;;;;;;;11.32;10.13;;;;;;;;;;5014915;28;20064;-77
2023/09/03 02:20:01;;;;;;;10.80;9.80;;;;;;;;;;5016089;28;20059;-77
2023/09/03 02:22:27;;;;;;;11.93;10.18;;;;;;;;;;5012934;28;20120;-77
2023/09/03 02:24:53;;;;;;;10.63;9.30;;;;;;;;;;4994584;28;20033;-77
2023/09/03 02:27:19;;;;;;;10.18;9.05;;;;;;;;;;4991788;28;20052;-78
2023/09/03 02:29:45;;;;;;;10.90;9.77;;;;;;;;;;5011072;28;20052;-77
2023/09/03 02:32:11;;;;;;;11.05;9.90;;;;;;;;;;5013367;28;20041;-78
2023/09/03 02:34:38;;;;;;;11.82;10.18;;;;;;;;;;4988160;28;20056;-78
2023/09/03 02:37:04;;;;;;;12.57;10.18;;;;;;;;;;5020392;28;20061;-78
2023/09/03 02:39:30;;;;;;;11.27;10.07;;;;;;;;;;5010321;28;20168;-77
2023/09/03 02:41:59;;;;;;;10.70;9.68;;;;;;;;;;5006019;28;20048;-78
2023/09/03 02:44:25;;;;;;;10.90;9.80;;;;;;;;;;5012361;28;20081;-78
2023/09/03 02:46:52;;;;;;;11.63;9.35;;;;;;;;;;5002872;28;20040;-78
2023/09/03 02:49:18;;;;;;;10.93;9.80;;;;;;;;;;5018546;28;20040;-77
2023/09/03 02:51:44;;;;;;;15.43;10.75;;;;;;;;;;5024005;28;20079;-78
2023/09/03 02:54:10;;;;;;;11.18;9.82;;;;;;;;;;5010748;28;20084;-77
2023/09/03 02:56:36;;;;;;;12.85;9.85;;;;;;;;;;5011229;28;20057;-78
2023/09/03 02:59:03;;;;;;;11.75;10.13;;;;;;;;;;5021883;28;20049;-78
2023/09/03 03:01:29;;;;;;;17.50;11.13;;;;;;;;;;5018588;28;20174;-78
2023/09/03 03:03:55;;;;;;;12.02;10.82;;;;;;;;;;5017772;28;20080;-78
2023/09/03 03:06:21;;;;;;;10.93;9.82;;;;;;;;;;5015074;28;20540;-78
2023/09/03 03:08:47;;;;;;;12.63;9.88;;;;;;;;;;5015339;28;20162;-78
2023/09/03 03:11:15;;;;;;;12.30;10.55;;;;;;;;;;5015700;28;20047;-78
2023/09/03 03:13:42;;;;;;;11.77;10.57;;;;;;;;;;5000242;28;20056;-78
2023/09/03 03:16:09;;;;;;;12.57;10.40;;;;;;;;;;5014690;28;20045;-78
2023/09/03 03:18:36;;;;;;;12.73;10.40;;;;;;;;;;5017810;28;20053;-78
2023/09/03 03:21:06;;;;;;;18.40;10.98;;;;;;;;;;5020599;28;20616;-78
2023/09/03 03:23:33;;;;;;;11.43;10.15;;;;;;;;;;5001186;28;20046;-78
2023/09/03 03:25:59;;;;;;;13.68;11.18;;;;;;;;;;4999700;28;21124;-78
2023/09/03 03:28:26;;;;;;;12.30;10.55;;;;;;;;;;5014099;28;20174;-78
2023/09/03 03:30:52;;;;;;;13.73;10.82;;;;;;;;;;5013548;28;20049;-78
2023/09/03 03:33:18;;;;;;;12.25;10.25;;;;;;;;;;5013380;28;20094;-78
2023/09/03 03:35:44;;;;;;;11.38;10.05;;;;;;;;;;5001277;28;21020;-77
2023/09/03 03:38:10;;;;;;;11.40;9.38;;;;;;;;;;5017851;28;22032;-77
2023/09/03 03:40:36;;;;;;;11.10;9.65;;;;;;;;;;5018080;28;20037;-78
2023/09/03 03:43:02;;;;;;;10.43;9.40;;;;;;;;;;4986237;28;20966;-77
2023/09/03 03:45:29;;;;;;;10.45;9.45;;;;;;;;;;5017806;28;20060;-77
2023/09/03 03:47:55;;;;;;;10.52;9.30;;;;;;;;;;4999188;28;20706;-78
2023/09/03 03:50:21;;;;;;;9.57;8.65;;;;;;;;;;5018476;28;20053;-78
2023/09/03 03:52:47;;;;;;;9.93;8.95;;;;;;;;;;5019385;28;20135;-78
2023/09/03 03:55:13;;;;;;;10.25;9.25;;;;;;;;;;5020721;28;20087;-78
2023/09/03 03:57:39;;;;;;;10.07;9.07;;;;;;;;;;5021836;28;20045;-78
2023/09/03 04:00:06;;;;;;;11.10;9.65;;;;;;;;;;4986606;28;20175;-78
2023/09/03 04:02:32;;;;;;;16.30;10.02;;;;;;;;;;5020120;28;20047;-77
2023/09/03 04:04:59;;;;;;;10.93;9.73;;;;;;;;;;5019076;28;20131;-78
2023/09/03 04:07:25;;;;;;;11.73;9.85;;;;;;;;;;5020815;28;20041;-78
2023/09/03 04:09:51;;;;;;;12.48;10.63;;;;;;;;;;5002748;28;20037;-77
2023/09/03 04:12:17;;;;;;;11.88;10.68;;;;;;;;;;5017170;28;20044;-77
2023/09/03 04:14:45;;;;;;;12.65;10.70;;;;;;;;;;5001168;28;20041;-78
2023/09/03 04:17:11;;;;;;;12.05;10.75;;;;;;;;;;5014878;28;20033;-77
2023/09/03 04:19:38;;;;;;;13.20;9.70;;;;;;;;;;5017329;28;20045;-78
2023/09/03 04:22:04;;;;;;;11.18;10.13;;;;;;;;;;4997649;28;20168;-77
2023/09/03 04:24:30;;;;;;;11.20;9.85;;;;;;;;;;5021010;28;20094;-77
2023/09/03 04:26:56;;;;;;;11.00;9.90;;;;;;;;;;5014032;28;20075;-78
2023/09/03 04:29:22;;;;;;;11.45;10.25;;;;;;;;;;4996934;28;21940;-78
2023/09/03 04:31:49;;;;;;;14.77;10.82;;;;;;;;;;5012416;28;21029;-78
2023/09/03 04:34:16;;;;;;;14.85;10.48;;;;;;;;;;5013199;28;20064;-78
2023/09/03 04:36:42;;;;;;;15.75;10.25;;;;;;;;;;5017950;28;20072;-78
2023/09/03 04:39:08;;;;;;;12.73;10.38;;;;;;;;;;5014172;28;20037;-78
2023/09/03 04:41:34;;;;;;;11.88;10.57;;;;;;;;;;4997236;28;20777;-77
2023/09/03 04:44:07;;;;;;;11.13;10.00;;;;;;;;;;5014753;28;20140;-78
2023/09/03 04:46:33;;;;;;;12.90;10.20;;;;;;;;;;5012510;28;20041;-78
2023/09/03 04:48:59;;;;;;;14.88;10.80;;;;;;;;;;5012531;28;20049;-78
2023/09/03 04:51:25;;;;;;;11.57;10.35;;;;;;;;;;5015859;28;20506;-78
2023/09/03 04:53:52;;;;;;;10.80;9.80;;;;;;;;;;5013825;28;20148;-78
2023/09/03 04:56:18;;;;;;;11.35;10.15;;;;;;;;;;5010481;28;20568;-77
2023/09/03 04:58:44;;;;;;;12.25;10.25;;;;;;;;;;5011983;28;20061;-78
2023/09/03 05:01:16;;;;;;;13.98;9.25;;;;;;;;;;5013085;28;20479;-77
2023/09/03 05:03:42;;;;;;;12.25;10.48;;;;;;;;;;5014105;28;20033;-77
2023/09/03 05:06:13;;;;;;;10.52;9.52;;;;;;;;;;5012498;28;20132;-77
2023/09/03 05:08:39;;;;;;;11.32;10.30;;;;;;;;;;5001291;28;20071;-77
2023/09/03 05:11:11;;;;;;;14.27;10.55;;;;;;;;;;5012097;28;20126;-77
2023/09/03 05:13:37;;;;;;;15.13;10.82;;;;;;;;;;5011291;28;20099;-77
2023/09/03 05:16:04;;;;;;;15.55;11.00;;;;;;;;;;5013034;28;20076;-78
2023/09/03 05:18:30;;;;;;;15.05;11.00;;;;;;;;;;4993529;28;20052;-77
2023/09/03 05:20:57;;;;;;;19.25;11.27;;;;;;;;;;4998591;28;20049;-77
2023/09/03 05:23:23;;;;;;;11.90;10.57;;;;;;;;;;5018400;28;20063;-77
2023/09/03 05:25:49;;;;;;;11.57;10.45;;;;;;;;;;5011251;28;20044;-77
2023/09/03 05:28:15;;;;;;;13.43;10.88;;;;;;;;;;4995207;28;20042;-77
2023/09/03 05:30:41;;;;;;;12.60;11.20;;;;;;;;;;5012145;28;21890;-77
2023/09/03 05:33:07;;;;;;;15.05;10.57;;;;;;;;;;4979345;28;20100;-77
2023/09/03 05:35:33;;;;;;;15.27;11.00;;;;;;;;;;4998671;28;20083;-77
2023/09/03 05:37:59;;;;;;;11.95;10.73;;;;;;;;;;5016216;28;20041;-77
2023/09/03 05:40:25;;;;;;;13.38;11.00;;;;;;;;;;5014111;28;20067;-77
2023/09/03 05:42:52;;;;;;;12.77;10.25;;;;;;;;;;4999178;28;22274;-77
2023/09/03 05:45:18;;;;;;;11.73;10.57;;;;;;;;;;5014653;28;20381;-77
2023/09/03 05:47:44;;;;;;;14.30;10.68;;;;;;;;;;5015076;28;20064;-77
2023/09/03 05:50:10;;;;;;;11.02;9.93;;;;;;;;;;4995847;28;20048;-77
2023/09/03 05:52:36;;;;;;;11.95;10.75;;;;;;;;;;5016418;28;20041;-77
2023/09/03 05:55:02;;;;;;;11.30;10.00;;;;;;;;;;5002937;28;20041;-77
2023/09/03 05:57:28;;;;;;;14.35;10.38;;;;;;;;;;5005396;28;20072;-77
2023/09/03 05:59:55;;;;;;;13.68;11.23;;;;;;;;;;5018159;28;20052;-77
2023/09/03 06:02:22;;;;;;;11.73;10.15;;;;;;;;;;5018878;28;20127;-77
2023/09/03 06:04:50;;;;;;;11.68;10.48;;;;;;;;;;5014987;28;20412;-77
2023/09/03 06:07:16;;;;;;;11.73;10.48;;;;;;;;;;5009106;28;20099;-78
2023/09/03 06:09:42;;;;;;;11.63;9.75;;;;;;;;;;5018367;28;20043;-79
2023/09/03 06:12:08;;;;;;;11.85;10.65;;;;;;;;;;5016523;28;20037;-79
2023/09/03 06:14:35;;;;;;;15.25;11.05;;;;;;;;;;5011071;28;20045;-79
2023/09/03 06:17:03;;;;;;;12.02;10.82;;;;;;;;;;5009156;28;20132;-79
2023/09/03 06:19:29;;;;;;;12.23;11.02;;;;;;;;;;5013799;28;20876;-79
2023/09/03 06:21:56;;;;;;;14.05;11.02;;;;;;;;;;5013688;28;20059;-80
2023/09/03 06:24:22;;;;;;;12.88;11.38;;;;;;;;;;5011112;28;21539;-80
2023/09/03 06:26:48;;;;;;;12.98;11.75;;;;;;;;;;5011352;28;20060;-79
2023/09/03 06:29:14;;;;;;;15.73;11.93;;;;;;;;;;5002202;28;20079;-80
2023/09/03 06:31:44;;;;;;;15.35;11.63;;;;;;;;;;5010984;28;20041;-80
2023/09/03 06:34:10;;;;;;;12.18;11.02;;;;;;;;;;5008612;28;20060;-79
2023/09/03 06:36:39;;;;;;;12.45;11.25;;;;;;;;;;5013938;28;20060;-79
2023/09/03 06:39:05;;;;;;;14.20;11.18;;;;;;;;;;4998326;28;20124;-80
2023/09/03 06:41:31;;;;;;;13.85;10.88;;;;;;;;;;5008989;28;20045;-79
2023/09/03 06:43:57;;;;;;;13.25;11.90;;;;;;;;;;4992193;28;20071;-79
2023/09/03 06:46:23;;;;;;;12.40;11.10;;;;;;;;;;4994759;28;20057;-79
2023/09/03 06:48:50;;;;;;;12.60;11.18;;;;;;;;;;4985078;28;20049;-79
2023/09/03 06:51:16;;;;;;;14.23;11.93;;;;;;;;;;4977662;28;20053;-79
2023/09/03 06:53:42;;;;;;;13.63;11.93;;;;;;;;;;5011962;28;20049;-79
2023/09/03 06:56:08;;;;;;;13.25;12.00;;;;;;;;;;5013902;28;20056;-79
2023/09/03 06:58:34;;;;;;;13.93;11.52;;;;;;;;;;5011374;28;20064;-80
2023/09/03 07:01:02;;;;;;;12.60;11.30;;;;;;;;;;5013807;28;21687;-80
2023/09/03 07:03:28;;;;;;;11.90;10.63;;;;;;;;;;5013824;28;20050;-79
2023/09/03 07:05:55;;;;;;;10.95;9.93;;;;;;;;;;5010708;28;20409;-78
2023/09/03 07:08:21;;;;;;;12.35;10.00;;;;;;;;;;4995912;28;20052;-78
2023/09/03 07:10:47;;;;;;;14.02;9.27;;;;;;;;;;5010301;28;20076;-79
2023/09/03 07:13:13;;;;;;;9.77;8.73;;;;;;;;;;5011799;28;20076;-79
2023/09/03 07:15:39;;;;;;;10.40;9.35;;;;;;;;;;5010738;28;20049;-78
2023/09/03 07:18:05;;;;;;;10.70;9.60;;;;;;;;;;5011471;28;20577;-78
2023/09/03 07:20:31;;;;;;;12.52;9.20;;;;;;;;;;5012062;28;20048;-78
2023/09/03 07:22:57;;;;;;;10.35;9.13;;;;;;;;;;5014982;28;21743;-78
2023/09/03 07:25:25;;;;;;;10.43;8.00;;;;;;;;;;5009670;28;20516;-78
2023/09/03 07:27:51;;;;;;;8.85;7.95;;;;;;;;;;5010132;28;20063;-78
2023/09/03 07:30:17;;;;;;;11.55;7.65;;;;;;;;;;4991158;28;21232;-78
2023/09/03 07:32:43;;;;;;;9.02;7.65;;;;;;;;;;5013356;28;20051;-78
2023/09/03 07:35:09;;;;;;;8.23;7.07;;;;;;;;;;5011180;28;20064;-78
2023/09/03 07:37:38;;;;;;;7.53;6.82;;;;;;;;;;5019277;28;21103;-77
2023/09/03 07:40:04;;;;;;;8.05;6.85;;;;;;;;;;5016014;28;20042;-78
2023/09/03 07:42:30;;;;;;;7.43;6.72;;;;;;;;;;5015956;28;20049;-77
2023/09/03 07:44:56;;;;;;;9.00;7.43;;;;;;;;;;5015072;28;20049;-78
2023/09/03 07:47:23;;;;;;;11.25;7.55;;;;;;;;;;5013976;28;20509;-78
2023/09/03 07:49:49;;;;;;;7.72;6.93;;;;;;;;;;5014301;28;20041;-79
2023/09/03 07:52:16;;;;;;;7.68;6.13;;;;;;;;;;5015480;28;20247;-78
2023/09/03 07:54:42;;;;;;;6.07;5.40;;;;;;;;;;5018678;28;20049;-78
2023/09/03 07:57:08;;;;;;;10.73;5.50;;;;;;;;;;5002646;28;20041;-78
2023/09/03 07:59:35;;;;;;;5.30;4.80;;;;;;;;;;5003249;28;20500;-77
2023/09/03 08:02:02;;;;;;;6.80;5.10;;;;;;;;;;4999550;28;20055;-78
2023/09/03 08:04:28;;;;;;;5.63;5.07;;;;;;;;;;5007013;28;20052;-78
2023/09/03 08:06:55;;;;;;;6.70;5.40;;;;;;;;;;5018253;28;20078;-77
2023/09/03 08:09:23;;;;;;;8.98;5.85;;;;;;;;;;5021684;28;20132;-79
2023/09/03 08:11:50;;;;;;;8.00;5.15;;;;;;;;;;5021209;28;20101;-77
2023/09/03 08:14:16;;;;;;;7.78;5.05;;;;;;;;;;5006254;28;20048;-77
2023/09/03 08:16:42;;;;;;;4.75;4.25;;;;;;;;;;5004031;28;20049;-77
2023/09/03 08:19:08;;;;;;;5.80;4.25;;;;;;;;;;5016560;28;20132;-77
2023/09/03 08:21:34;;;;;;;5.15;4.10;;;;;;;;;;5007673;28;20494;-78
2023/09/03 08:24:00;;;;;;;5.72;4.18;;;;;;;;;;5019349;28;20033;-78
2023/09/03 08:26:26;;;;;;;4.38;3.30;;;;;;;;;;5016689;28;20048;-77
2023/09/03 08:28:52;;;;;;;4.72;2.97;;;;;;;;;;5018374;28;20172;-78
2023/09/03 08:31:18;;;;;;;5.38;4.22;;;;;;;;;;5016134;28;20675;-79
2023/09/03 08:33:44;;;;;;;4.60;3.20;;;;;;;;;;5018512;28;20049;-78
2023/09/03 08:36:10;;;;;;;4.72;2.85;;;;;;;;;;5000631;28;20053;-78
2023/09/03 08:38:37;;;;;;;3.72;3.22;;;;;;;;;;5018676;28;22013;-78
2023/09/03 08:41:03;;;;;;;6.93;4.15;;;;;;;;;;4994508;28;20788;-78
2023/09/03 08:43:30;;;;;;;6.32;4.18;;;;;;;;;;5017252;28;20037;-78
2023/09/03 08:45:59;;;;;;;4.75;3.90;;;;;;;;;;4999291;28;20107;-77
2023/09/03 08:48:25;;;;;;;7.40;4.50;;;;;;;;;;5016917;28;20041;-78
2023/09/03 08:50:51;;;;;;;7.38;3.88;;;;;;;;;;5015578;28;20052;-78
2023/09/03 08:53:18;;;;;;;4.18;3.70;;;;;;;;;;5015400;28;21305;-78
2023/09/03 08:55:44;;;;;;;5.90;3.55;;;;;;;;;;5032510;28;20044;-78
2023/09/03 08:58:11;;;;;;;7.35;3.42;;;;;;;;;;5012418;28;20056;-77
2023/09/03 09:00:37;;;;;;;4.55;3.10;;;;;;;;;;5015394;28;20045;-77
2023/09/03 09:03:06;;;;;;;6.43;2.72;;;;;;;;;;5014450;28;20041;-77
2023/09/03 09:05:33;;;;;;;3.88;2.58;;;;;;;;;;5014571;28;20532;-77
2023/09/03 09:08:01;;;;;;;4.38;2.78;;;;;;;;;;4998515;28;20060;-77
2023/09/03 09:10:31;;;;;;;6.70;2.92;;;;;;;;;;5014791;28;20068;-77
2023/09/03 09:13:01;;;;;;;3.88;2.40;;;;;;;;;;5015045;28;20052;-78
2023/09/03 09:15:27;;;;;;;4.68;2.55;;;;;;;;;;5015357;28;20049;-77
2023/09/03 09:17:53;;;;;;;3.88;2.90;;;;;;;;;;5015688;28;20130;-77
2023/09/03 09:20:19;;;;;;;3.97;2.58;;;;;;;;;;5013339;28;20045;-78
2023/09/03 09:22:49;;;;;;;3.88;2.53;;;;;;;;;;5030098;28;20045;-78
2023/09/03 09:25:19;;;;;;;4.10;2.50;;;;;;;;;;5016307;28;20083;-78
2023/09/03 09:27:45;;;;;;;3.55;2.78;;;;;;;;;;5014079;28;20164;-78
2023/09/03 09:30:13;;;;;;;2.40;2.20;;;;;;;;;;5016083;28;20106;-78
2023/09/03 09:32:40;;;;;;;4.05;2.35;;;;;;;;;;5015534;28;20055;-79
2023/09/03 09:35:07;;;;;;;6.18;2.15;;;;;;;;;;5019074;28;20052;-78
2023/09/03 09:37:37;;;;;;;5.32;2.05;;;;;;;;;;5018961;28;20053;-78
2023/09/03 09:40:04;;;;;;;1.90;1.75;;;;;;;;;;5019346;28;20045;-77
2023/09/03 09:42:30;;;;;;;5.32;2.15;;;;;;;;;;5030047;28;20097;-77
2023/09/03 09:44:58;;;;;;;3.78;2.50;;;;;;;;;;5014113;28;20028;-79
2023/09/03 09:47:25;;;;;;;5.40;1.95;;;;;;;;;;5033114;28;20082;-75
2023/09/03 09:49:51;;;;;;;4.13;2.15;;;;;;;;;;5013566;28;20140;-79
2023/09/03 09:52:17;;;;;;;3.63;2.33;;;;;;;;;;5035895;28;20049;-78
2023/09/03 09:54:44;;;;;;;3.42;2.33;;;;;;;;;;5003152;28;20053;-78
2023/09/03 09:57:14;;;;;;;3.40;2.40;;;;;;;;;;5017261;28;20041;-78
2023/09/03 09:59:44;;;;;;;2.97;2.17;;;;;;;;;;5000650;28;20052;-78
2023/09/03 10:02:14;;;;;;;2.75;2.20;;;;;;;;;;5016707;28;21075;-78
2023/09/03 10:04:44;;;;;;;2.20;1.85;;;;;;;;;;5018027;28;20123;-78
2023/09/03 10:07:10;;;;;;;2.75;1.88;;;;;;;;;;5023242;28;20048;-78
2023/09/03 10:09:38;;;;;;;3.20;1.70;;;;;;;;;;5016235;28;20051;-78
2023/09/03 10:12:04;;;;;;;3.13;2.10;;;;;;;;;;5017425;28;20063;-78
2023/09/03 10:14:30;;;;;;;5.32;2.17;;;;;;;;;;5023268;28;20040;-78
2023/09/03 10:16:57;;;;;;;4.00;2.05;;;;;;;;;;4994641;28;20202;-80
2023/09/03 10:19:37;;;;;;;4.82;2.13;;;;;;;;;;5011142;28;20051;-79
2023/09/03 10:22:05;;;;;;;3.70;1.95;;;;;;;;;;5012175;28;22219;-80
2023/09/03 10:24:31;;;;;;;3.50;1.70;;;;;;;;;;5008148;28;20037;-80
2023/09/03 10:26:59;;;;;;;4.22;1.77;;;;;;;;;;4997240;28;21550;-79
2023/09/03 10:29:26;;;;;;;3.78;2.05;;;;;;;;;;5013229;28;20067;-79
2023/09/03 10:31:52;;;;;;;4.97;1.65;;;;;;;;;;5004887;28;20049;-79
2023/09/03 10:34:18;;;;;;;2.83;1.55;;;;;;;;;;5029787;28;20045;-80
2023/09/03 10:37:04;;;;;;;1.63;1.38;;;;;;;;;;5014735;28;20524;-78
2023/09/03 10:39:30;;;;;;;3.33;2.20;;;;;;;;;;5012226;28;20060;-80
2023/09/03 10:42:15;;;;;;;4.50;2.20;;;;;;;;;;5028868;28;20075;-79
2023/09/03 10:44:42;;;;;;;4.03;2.28;;;;;;;;;;5011422;28;21666;-79
2023/09/03 10:47:10;;;;;;;2.50;1.95;;;;;;;;;;5014880;28;20102;-79
2023/09/03 10:49:43;;;;;;;3.05;1.80;;;;;;;;;;5009464;28;20485;-79
2023/09/03 10:52:30;;;;;;;2.67;1.55;;;;;;;;;;5009202;28;20507;-79
2023/09/03 10:55:12;;;;;;;3.60;2.00;;;;;;;;;;5013416;28;20953;-79
2023/09/03 10:57:38;;;;;;;4.95;2.03;;;;;;;;;;5011160;28;21498;-79
2023/09/03 11:00:07;;;;;;;2.33;1.70;;;;;;;;;;5010856;28;20044;-80
2023/09/03 11:02:34;;;;;;;1.63;1.48;;;;;;;;;;4994314;28;20596;-79
2023/09/03 11:05:19;;;;;;;7.00;1.83;;;;;;;;;;5027016;28;20107;-80
2023/09/03 11:07:46;;;;;;;3.15;2.00;;;;;;;;;;5030670;28;20055;-79
2023/09/03 11:10:32;;;;;;;8.45;3.30;;;;;;;;;;5031435;28;20072;-79
2023/09/03 11:13:00;;;;;;;2.65;1.60;;;;;;;;;;4983695;28;20056;-80
2023/09/03 11:15:27;;;;;;;3.30;1.65;;;;;;;;;;5018619;28;20052;-79
2023/09/03 11:17:54;;;;;;;2.55;1.38;;;;;;;;;;5019344;28;20040;-79
2023/09/03 11:20:30;;;;;;;3.75;1.50;;;;;;;;;;5035610;28;20049;-79
2023/09/03 11:22:56;;;;;;;6.78;3.45;;;;;;;;;;5035509;28;20041;-79
2023/09/03 11:25:36;;;;;;;4.28;2.22;;;;;;;;;;5034618;28;20044;-81
2023/09/03 11:28:07;;;;;;;3.58;1.70;;;;;;;;;;5035605;28;20160;-80
2023/09/03 11:30:34;;;;;;;3.58;1.83;;;;;;;;;;4996659;28;20074;-79
2023/09/03 11:33:01;;;;;;;1.98;1.30;;;;;;;;;;5016446;28;20062;-79
2023/09/03 11:35:27;;;;;;;8.63;2.13;;;;;;;;;;4997154;28;20044;-79
2023/09/03 11:37:53;;;;;;;3.15;1.65;;;;;;;;;;5015305;28;20580;-79
2023/09/03 11:40:24;;;;;;;2.65;1.50;;;;;;;;;;5015114;28;20500;-79
2023/09/03 11:42:50;;;;;;;1.88;1.38;;;;;;;;;;5012397;28;20051;-79
2023/09/03 11:45:19;;;;;;;3.17;1.60;;;;;;;;;;5031408;28;20039;-79
2023/09/03 11:47:49;;;;;;;2.58;1.48;;;;;;;;;;5012643;28;20043;-79
2023/09/03 11:50:15;;;;;;;2.45;1.75;;;;;;;;;;5031225;28;20222;-79
2023/09/03 11:52:49;;;;;;;6.80;1.90;;;;;;;;;;4999316;28;20052;-80
2023/09/03 11:55:16;;;;;;;9.57;2.45;;;;;;;;;;5015759;28;20067;-80
2023/09/03 11:57:46;;;;;;;5.97;2.22;;;;;;;;;;5003295;28;20033;-80
2023/09/03 12:00:12;;;;;;;14.45;2.25;;;;;;;;;;4997174;28;20492;-80
2023/09/03 12:02:42;;;;;;;3.10;1.60;;;;;;;;;;5033699;28;20558;-80
2023/09/03 12:05:09;;;;;;;3.38;1.40;;;;;;;;;;5015342;28;20045;-79
2023/09/03 12:07:35;;;;;;;10.52;2.13;;;;;;;;;;5017077;28;20055;-81
2023/09/03 12:10:01;;;;;;;4.78;1.95;;;;;;;;;;5017671;28;20059;-78
2023/09/03 12:12:27;;;;;;;3.33;1.63;;;;;;;;;;5002311;28;20076;-80
2023/09/03 12:14:53;;;;;;;2.00;1.10;;;;;;;;;;5012508;28;20084;-79
2023/09/03 12:17:38;;;;;;;7.93;1.80;;;;;;;;;;5015327;28;20211;-79
2023/09/03 12:20:04;;;;;;;3.90;1.83;;;;;;;;;;5015135;28;20400;-79
2023/09/03 12:22:30;;;;;;;3.40;2.03;;;;;;;;;;4997375;28;20601;-79
2023/09/03 12:25:04;;;;;;;4.18;1.85;;;;;;;;;;5015582;28;20044;-79
2023/09/03 12:27:30;;;;;;;5.05;1.92;;;;;;;;;;5014789;28;20456;-79
2023/09/03 12:29:57;;;;;;;3.58;1.60;;;;;;;;;;5034466;28;20047;-79
2023/09/03 12:32:33;;;;;;;5.78;1.70;;;;;;;;;;4996728;28;20132;-81
2023/09/03 12:34:59;;;;;;;5.07;1.58;;;;;;;;;;5018209;28;20048;-81
2023/09/03 12:37:25;;;;;;;6.55;1.40;;;;;;;;;;4997040;28;20057;-79
2023/09/03 12:39:51;;;;;;;3.25;1.30;;;;;;;;;;5013748;28;20889;-79
2023/09/03 12:42:18;;;;;;;4.50;1.50;;;;;;;;;;5011755;28;20045;-78
2023/09/03 12:44:44;;;;;;;1.95;1.40;;;;;;;;;;5014507;28;20052;-79
2023/09/03 12:47:10;;;;;;;2.33;1.15;;;;;;;;;;5014687;28;20060;-79
2023/09/03 12:49:40;;;;;;;4.63;1.50;;;;;;;;;;5011656;28;20179;-80
2023/09/03 12:52:07;;;;;;;1.80;1.40;;;;;;;;;;5013141;28;20078;-80
2023/09/03 12:54:34;;;;;;;5.13;1.55;;;;;;;;;;5012398;28;20371;-82
2023/09/03 12:57:00;;;;;;;2.72;1.65;;;;;;;;;;5015762;28;20075;-80
2023/09/03 12:59:26;;;;;;;2.42;1.35;;;;;;;;;;5012052;28;20087;-81
2023/09/03 13:01:52;;;;;;;2.35;1.33;;;;;;;;;;4995426;28;20072;-81
2023/09/03 13:04:18;;;;;;;1.88;1.35;;;;;;;;;;5015409;28;20178;-80
2023/09/03 13:06:44;;;;;;;2.00;1.20;;;;;;;;;;5007082;28;20041;-78
2023/09/03 13:09:11;;;;;;;1.80;1.30;;;;;;;;;;5013987;28;20047;-81
2023/09/03 13:11:37;;;;;;;7.53;1.40;;;;;;;;;;5011574;28;20523;-80
2023/09/03 13:14:03;;;;;;;4.75;1.45;;;;;;;;;;5008191;28;20067;-79
2023/09/03 13:16:30;;;;;;;1.58;1.38;;;;;;;;;;4990633;28;20041;-78
2023/09/03 13:18:56;;;;;;;5.13;1.60;;;;;;;;;;5006784;28;20543;-82
2023/09/03 13:21:23;;;;;;;3.85;1.50;;;;;;;;;;4996314;28;20293;-82
2023/09/03 13:23:51;;;;;;;5.13;1.55;;;;;;;;;;4995539;28;20520;-80
2023/09/03 13:26:18;;;;;;;3.25;1.27;;;;;;;;;;5006017;28;20041;-83
2023/09/03 13:28:44;;;;;;;3.60;1.33;;;;;;;;;;5014176;28;20041;-82
2023/09/03 13:31:10;;;;;;;3.38;1.58;;;;;;;;;;5017271;28;20041;-81
2023/09/03 13:33:36;;;;;;;3.83;1.50;;;;;;;;;;5007107;28;20141;-82
2023/09/03 13:36:10;;;;;;;2.25;1.40;;;;;;;;;;5010957;28;20582;-83
2023/09/03 13:38:36;;;;;;;2.65;1.33;;;;;;;;;;5013854;28;20050;-83
2023/09/03 13:41:04;;;;;;;5.15;1.23;;;;;;;;;;5015547;28;20091;-81
2023/09/03 13:43:30;;;;;;;3.33;1.35;;;;;;;;;;5007407;28;20481;-80
2023/09/03 13:45:58;;;;;;;5.72;1.30;;;;;;;;;;5006599;28;20500;-80
2023/09/03 13:48:24;;;;;;;5.38;1.40;;;;;;;;;;5006645;28;20044;-80
2023/09/03 13:50:57;;;;;;;4.85;1.60;;;;;;;;;;4993759;28;20053;-80
2023/09/03 13:53:25;;;;;;;2.57;1.57;;;;;;;;;;5007335;28;20052;-81
2023/09/03 13:55:51;;;;;;;8.40;1.75;;;;;;;;;;5010074;28;20207;-82
2023/09/03 13:58:18;;;;;;;3.45;1.20;;;;;;;;;;5008417;28;20056;-80
2023/09/03 14:00:44;;;;;;;4.00;1.30;;;;;;;;;;5006676;28;20049;-84
2023/09/03 14:03:13;;;;;;;5.45;1.40;;;;;;;;;;4990954;28;20096;-81
2023/09/03 14:05:39;;;;;;;6.20;1.40;;;;;;;;;;5008957;28;20046;-81
2023/09/03 14:08:06;;;;;;;1.85;1.45;;;;;;;;;;4990060;28;20136;-82
2023/09/03 14:10:35;;;;;;;2.97;1.40;;;;;;;;;;5006045;28;20171;-81
2023/09/03 14:13:01;;;;;;;2.83;1.58;;;;;;;;;;5008610;28;20382;-79
2023/09/03 14:15:27;;;;;;;2.60;1.02;;;;;;;;;;5006327;28;20405;-81
2023/09/03 14:17:53;;;;;;;2.15;1.42;;;;;;;;;;5011394;28;20170;-80
2023/09/03 14:20:19;;;;;;;2.70;1.25;;;;;;;;;;5005935;28;20148;-82
2023/09/03 14:22:45;;;;;;;2.67;1.15;;;;;;;;;;4995737;28;20484;-81
2023/09/03 14:25:12;;;;;;;3.42;1.50;;;;;;;;;;5004791;28;20045;-79
2023/09/03 14:27:38;;;;;;;4.47;1.02;;;;;;;;;;5004360;28;20440;-80
2023/09/03 14:30:04;;;;;;;2.17;1.20;;;;;;;;;;5007525;28;20650;-81
2023/09/03 14:32:33;;;;;;;2.60;1.10;;;;;;;;;;4988549;28;20130;-81
2023/09/03 14:35:00;;;;;;;2.78;1.40;;;;;;;;;;5002022;28;20898;-80